Time;durP1;ratioP1;P1;durP2;ratioP2;P2;SDS_P1;SDS_P2;PMS_P1;PMS_P2;Temp;Humidity;BMP_temperature;BMP_pressure;BME280_temperature;BME280_humidity;BME280_pressure;Samples;Min_cycle;Max_cycle;Signal;HPM_P1;HPM_P2
2023/11/28 00:01:48;;;;;;;;;;;2.70;88.30;;;;;;5052426;28;19935;-64
2023/11/28 00:04:23;;;;;;;;;;;2.70;88.30;;;;;;5052777;28;19940;-63
2023/11/28 00:07:00;;;;;;;;;;;2.70;88.40;;;;;;5028331;28;19971;-63
2023/11/28 00:09:33;;;;;;;;;;;2.70;88.30;;;;;;5054374;28;19936;-64
2023/11/28 00:12:09;;;;;;;;;;;2.70;88.30;;;;;;5049791;28;19929;-62
2023/11/28 00:14:43;;;;;;;;;;;2.70;88.30;;;;;;5048078;28;19928;-64
2023/11/28 00:17:22;;;;;;;;;;;2.70;88.20;;;;;;5051286;28;19931;-62
2023/11/28 00:19:57;;;;;;;;;;;2.70;88.30;;;;;;5053517;28;19932;-63
2023/11/28 00:22:31;;;;;;;;;;;2.70;88.20;;;;;;5052032;28;20024;-62
2023/11/28 00:25:04;;;;;;;;;;;2.70;88.30;;;;;;5054700;28;20017;-63
2023/11/28 00:27:38;;;;;;;;;;;2.70;88.30;;;;;;5051504;28;19924;-63
2023/11/28 00:30:12;;;;;;;;;;;2.70;88.30;;;;;;5053119;28;19929;-67
2023/11/28 00:32:45;;;;;;;;;;;2.70;88.30;;;;;;5053119;28;19950;-64
2023/11/28 00:35:20;;;;;;;;;;;2.70;88.30;;;;;;5044720;28;20024;-63
2023/11/28 00:37:53;;;;;;;;;;;2.70;88.10;;;;;;5051824;28;19939;-62
2023/11/28 00:40:31;;;;;;;;;;;2.70;88.20;;;;;;5044737;28;19925;-62
2023/11/28 00:43:05;;;;;;;;;;;2.70;88.30;;;;;;5050185;28;20300;-63
2023/11/28 00:45:39;;;;;;;;;;;2.70;88.20;;;;;;5034943;28;19924;-63
2023/11/28 00:48:13;;;;;;;;;;;2.70;88.30;;;;;;5049324;28;19936;-63
2023/11/28 00:50:47;;;;;;;;;;;2.70;88.30;;;;;;5034390;28;19931;-63
2023/11/28 00:53:21;;;;;;;;;;;2.70;88.40;;;;;;5044097;28;19971;-62
2023/11/28 00:55:48;;;;;;;;;;;2.60;88.40;;;;;;5053051;28;19959;-64
2023/11/28 00:58:22;;;;;;;;;;;2.60;88.40;;;;;;5047653;28;19929;-63
2023/11/28 01:00:56;;;;;;;;;;;2.60;88.40;;;;;;5035397;28;19932;-62
2023/11/28 01:03:30;;;;;;;;;;;2.60;88.40;;;;;;5052524;28;20113;-63
2023/11/28 01:06:06;;;;;;;;;;;2.60;88.50;;;;;;5051587;28;20318;-63
2023/11/28 01:08:40;;;;;;;;;;;2.60;88.50;;;;;;5050582;28;19964;-63
2023/11/28 01:11:13;;;;;;;;;;;2.60;88.40;;;;;;5048245;28;19943;-60
2023/11/28 01:13:40;;;;;;;;;;;2.60;88.50;;;;;;5049583;28;19974;-61
2023/11/28 01:16:13;;;;;;;;;;;2.60;88.60;;;;;;5049572;28;19929;-60
2023/11/28 01:18:46;;;;;;;;;;;2.50;88.50;;;;;;5051677;28;20011;-61
2023/11/28 01:21:20;;;;;;;;;;;2.60;88.60;;;;;;5048068;28;19928;-62
2023/11/28 01:23:59;;;;;;;;;;;2.60;88.50;;;;;;5049954;28;20834;-58
2023/11/28 01:26:33;;;;;;;;;;;2.60;88.50;;;;;;5050280;28;19929;-60
2023/11/28 01:29:07;;;;;;;;;;;2.60;88.60;;;;;;5035743;28;19960;-59
2023/11/28 01:31:40;;;;;;;;;;;2.60;88.60;;;;;;5032871;28;19929;-60
2023/11/28 01:34:14;;;;;;;;;;;2.60;88.50;;;;;;5050229;28;20023;-62
2023/11/28 01:36:52;;;;;;;;;;;2.60;88.60;;;;;;5027105;28;19933;-59
2023/11/28 01:39:26;;;;;;;;;;;2.60;88.50;;;;;;5047692;28;19925;-58
2023/11/28 01:41:59;;;;;;;;;;;2.60;88.50;;;;;;5050642;28;19931;-59
2023/11/28 01:44:32;;;;;;;;;;;2.60;88.60;;;;;;5051174;28;19939;-60
2023/11/28 01:47:06;;;;;;;;;;;2.60;88.60;;;;;;5050940;28;19932;-61
2023/11/28 01:49:42;;;;;;;;;;;2.60;88.50;;;;;;5049896;28;19935;-60
2023/11/28 01:52:17;;;;;;;;;;;2.50;88.60;;;;;;5047204;28;19929;-60
2023/11/28 01:54:51;;;;;;;;;;;2.60;88.70;;;;;;5050143;28;19939;-65
2023/11/28 01:57:24;;;;;;;;;;;2.60;88.80;;;;;;5044075;28;20012;-62
2023/11/28 01:59:59;;;;;;;;;;;2.60;88.70;;;;;;5042416;28;19929;-60
2023/11/28 02:02:41;;;;;;;;;;;2.60;88.60;;;;;;5050796;28;19947;-59
2023/11/28 02:05:14;;;;;;;;;;;2.60;88.60;;;;;;5051058;28;19925;-58
2023/11/28 02:07:48;;;;;;;;;;;2.60;88.60;;;;;;5049997;28;19940;-58
2023/11/28 02:10:23;;;;;;;;;;;2.60;88.70;;;;;;5040603;28;20197;-61
2023/11/28 02:12:57;;;;;;;;;;;2.60;88.70;;;;;;5048145;28;19998;-60
2023/11/28 02:15:39;;;;;;;;;;;2.50;88.70;;;;;;5026270;28;19999;-59
2023/11/28 02:18:14;;;;;;;;;;;2.50;88.70;;;;;;5042600;28;19983;-59
2023/11/28 02:20:47;;;;;;;;;;;2.50;88.70;;;;;;5052276;28;20011;-60
2023/11/28 02:23:21;;;;;;;;;;;2.50;88.70;;;;;;5045621;28;19925;-59
2023/11/28 02:25:57;;;;;;;;;;;2.40;88.80;;;;;;5050116;28;19935;-59
2023/11/28 02:28:32;;;;;;;;;;;2.40;88.90;;;;;;5050551;28;20415;-59
2023/11/28 02:31:06;;;;;;;;;;;2.40;89.00;;;;;;5033095;28;20011;-59
2023/11/28 02:33:46;;;;;;;;;;;2.40;89.00;;;;;;5044795;28;19929;-59
2023/11/28 02:36:20;;;;;;;;;;;2.40;89.00;;;;;;5050377;28;19956;-58
2023/11/28 02:38:53;;;;;;;;;;;2.40;89.10;;;;;;5049593;28;19925;-60
2023/11/28 02:41:27;;;;;;;;;;;2.40;89.20;;;;;;5048529;28;19935;-58
2023/11/28 02:44:02;;;;;;;;;;;2.40;89.10;;;;;;5051148;28;19932;-59
2023/11/28 02:46:35;;;;;;;;;;;2.40;89.10;;;;;;5024841;28;19932;-58
2023/11/28 02:49:08;;;;;;;;;;;2.50;88.90;;;;;;5050531;28;20288;-59
2023/11/28 02:51:42;;;;;;;;;;;2.50;88.80;;;;;;5049726;28;19925;-58
2023/11/28 02:54:15;;;;;;;;;;;2.50;88.80;;;;;;5047809;28;19994;-59
2023/11/28 02:56:50;;;;;;;;;;;2.50;88.80;;;;;;5041401;28;20030;-60
2023/11/28 02:59:24;;;;;;;;;;;2.50;88.90;;;;;;5043206;28;19971;-59
2023/11/28 03:01:58;;;;;;;;;;;2.40;89.00;;;;;;5031172;28;19929;-59
2023/11/28 03:04:31;;;;;;;;;;;2.40;88.90;;;;;;5047649;28;19933;-60
2023/11/28 03:07:04;;;;;;;;;;;2.40;89.20;;;;;;5048701;28;19936;-59
2023/11/28 03:09:37;;;;;;;;;;;2.40;89.10;;;;;;5049500;28;19929;-59
2023/11/28 03:12:10;;;;;;;;;;;2.40;89.20;;;;;;5044812;28;19943;-60
2023/11/28 03:14:44;;;;;;;;;;;2.40;89.10;;;;;;5042184;28;20015;-61
2023/11/28 03:17:18;;;;;;;;;;;2.40;89.10;;;;;;5046330;28;20002;-60
2023/11/28 03:19:51;;;;;;;;;;;2.40;89.20;;;;;;5049433;28;19984;-62
2023/11/28 03:22:24;;;;;;;;;;;2.30;89.20;;;;;;5046075;28;19932;-59
2023/11/28 03:25:04;;;;;;;;;;;2.30;89.30;;;;;;5050685;28;19925;-61
2023/11/28 03:27:38;;;;;;;;;;;2.30;89.30;;;;;;5047191;28;19939;-59
2023/11/28 03:30:13;;;;;;;;;;;2.40;89.20;;;;;;5048362;28;19948;-71
2023/11/28 03:32:46;;;;;;;;;;;2.40;89.20;;;;;;5022850;28;19933;-72
2023/11/28 03:35:19;;;;;;;;;;;2.40;89.10;;;;;;5037584;28;19936;-72
2023/11/28 03:37:52;;;;;;;;;;;2.50;89.00;;;;;;5047492;28;19951;-72
2023/11/28 03:40:25;;;;;;;;;;;2.50;89.00;;;;;;5050022;28;19928;-72
2023/11/28 03:42:58;;;;;;;;;;;2.50;89.00;;;;;;5049020;28;20397;-72
2023/11/28 03:45:32;;;;;;;;;;;2.60;88.90;;;;;;5049532;28;19940;-72
2023/11/28 03:48:09;;;;;;;;;;;2.60;88.80;;;;;;5049427;28;19925;-73
2023/11/28 03:50:42;;;;;;;;;;;2.60;88.80;;;;;;5048782;28;19929;-73
2023/11/28 03:53:15;;;;;;;;;;;2.60;88.80;;;;;;5044676;28;19957;-71
2023/11/28 03:55:48;;;;;;;;;;;2.60;88.80;;;;;;5024788;28;19960;-73
2023/11/28 03:58:21;;;;;;;;;;;2.60;88.70;;;;;;5026546;28;19931;-73
2023/11/28 04:00:56;;;;;;;;;;;2.70;88.80;;;;;;5051648;28;19952;-72
2023/11/28 04:03:29;;;;;;;;;;;2.60;88.70;;;;;;5024889;28;20035;-73
2023/11/28 04:06:02;;;;;;;;;;;2.60;88.70;;;;;;5027774;28;19979;-72
2023/11/28 04:08:36;;;;;;;;;;;2.60;88.60;;;;;;5027576;28;20020;-75
2023/11/28 04:11:09;;;;;;;;;;;2.60;88.70;;;;;;5049655;28;19928;-78
2023/11/28 04:13:42;;;;;;;;;;;2.60;88.70;;;;;;5028398;28;20024;-74
2023/11/28 04:16:17;;;;;;;;;;;2.60;88.70;;;;;;5047839;28;20051;-76
2023/11/28 04:18:51;;;;;;;;;;;2.60;88.80;;;;;;5032486;28;19943;-74
2023/11/28 04:21:25;;;;;;;;;;;2.60;88.80;;;;;;5051704;28;19936;-73
2023/11/28 04:23:58;;;;;;;;;;;2.60;88.80;;;;;;5042928;28;19925;-74
2023/11/28 04:26:31;;;;;;;;;;;2.60;88.80;;;;;;5023843;28;19940;-74
2023/11/28 04:29:04;;;;;;;;;;;2.60;88.80;;;;;;5027764;28;20016;-76
2023/11/28 04:31:39;;;;;;;;;;;2.60;88.90;;;;;;5030568;28;20383;-74
2023/11/28 04:34:06;;;;;;;;;;;2.50;88.90;;;;;;5049570;28;20578;-74
2023/11/28 04:36:41;;;;;;;;;;;2.50;88.80;;;;;;5030497;28;20434;-75
2023/11/28 04:39:15;;;;;;;;;;;2.60;88.90;;;;;;5044512;28;19932;-76
2023/11/28 04:41:58;;;;;;;;;;;2.60;88.80;;;;;;5033564;28;19925;-65
2023/11/28 04:44:32;;;;;;;;;;;2.60;88.80;;;;;;5049285;28;19929;-66
2023/11/28 04:47:07;;;;;;;;;;;2.60;88.90;;;;;;5043703;28;19925;-64
2023/11/28 04:49:40;;;;;;;;;;;2.60;88.90;;;;;;5051141;28;19924;-64
2023/11/28 04:52:14;;;;;;;;;;;2.50;88.90;;;;;;5048704;28;19994;-65
2023/11/28 04:54:47;;;;;;;;;;;2.60;88.90;;;;;;5051533;28;19928;-66
2023/11/28 04:57:20;;;;;;;;;;;2.60;88.80;;;;;;5049982;28;20394;-65
2023/11/28 04:59:59;;;;;;;;;;;2.60;88.80;;;;;;5026080;28;19928;-64
2023/11/28 05:02:34;;;;;;;;;;;2.60;88.80;;;;;;5031035;28;19933;-65
2023/11/28 05:05:08;;;;;;;;;;;2.60;88.90;;;;;;5044182;28;19939;-66
2023/11/28 05:07:42;;;;;;;;;;;2.70;88.70;;;;;;5048251;28;19925;-64
2023/11/28 05:10:15;;;;;;;;;;;2.70;88.60;;;;;;5025347;28;19933;-65
2023/11/28 05:12:48;;;;;;;;;;;2.70;88.80;;;;;;5032141;28;19928;-65
2023/11/28 05:15:21;;;;;;;;;;;2.70;88.70;;;;;;5026496;28;20278;-65
2023/11/28 05:17:56;;;;;;;;;;;2.70;88.70;;;;;;5043288;28;19925;-64
2023/11/28 05:20:30;;;;;;;;;;;2.70;88.70;;;;;;5029708;28;20386;-66
2023/11/28 05:23:05;;;;;;;;;;;2.70;88.70;;;;;;5047174;28;19932;-65
2023/11/28 05:25:40;;;;;;;;;;;2.70;88.70;;;;;;5032036;28;20038;-64
2023/11/28 05:28:14;;;;;;;;;;;2.70;88.80;;;;;;5047122;28;19925;-65
2023/11/28 05:30:47;;;;;;;;;;;2.70;88.70;;;;;;5030178;28;19935;-64
2023/11/28 05:33:22;;;;;;;;;;;2.70;88.70;;;;;;5047348;28;19925;-64
2023/11/28 05:35:59;;;;;;;;;;;2.70;88.80;;;;;;5049453;28;19985;-65
2023/11/28 05:38:32;;;;;;;;;;;2.60;88.80;;;;;;5031963;28;19968;-65
2023/11/28 05:41:05;;;;;;;;;;;2.70;88.70;;;;;;5022951;28;19929;-65
2023/11/28 05:43:39;;;;;;;;;;;2.70;88.80;;;;;;5030060;28;20057;-64
2023/11/28 05:46:12;;;;;;;;;;;2.70;88.70;;;;;;5030043;28;19929;-64
2023/11/28 05:48:46;;;;;;;;;;;2.70;88.70;;;;;;5049167;28;19972;-66
2023/11/28 05:51:20;;;;;;;;;;;2.70;88.70;;;;;;5030018;28;19929;-59
2023/11/28 05:53:53;;;;;;;;;;;2.70;88.80;;;;;;5049033;28;19936;-59
2023/11/28 05:56:26;;;;;;;;;;;2.70;88.70;;;;;;5049437;28;19929;-59
2023/11/28 05:58:59;;;;;;;;;;;2.70;88.70;;;;;;5021904;28;19933;-58
2023/11/28 06:01:32;;;;;;;;;;;2.60;88.70;;;;;;5049281;28;19928;-59
2023/11/28 06:04:07;;;;;;;;;;;2.70;88.60;;;;;;5026461;28;19932;-60
2023/11/28 06:06:41;;;;;;;;;;;2.70;88.60;;;;;;5028744;28;19995;-59
2023/11/28 06:09:14;;;;;;;;;;;2.70;88.60;;;;;;5048516;28;19937;-61
2023/11/28 06:11:41;;;;;;;;;;;2.70;88.50;;;;;;5032056;28;19928;-57
2023/11/28 06:14:15;;;;;;;;;;;2.70;88.60;;;;;;5025997;28;19939;-57
2023/11/28 06:16:50;;;;;;;;;;;2.70;88.60;;;;;;5025715;28;20370;-59
2023/11/28 06:19:25;;;;;;;;;;;2.60;88.60;;;;;;5032052;28;19928;-60
2023/11/28 06:21:59;;;;;;;;;;;2.60;88.60;;;;;;5049341;28;20847;-59
2023/11/28 06:24:32;;;;;;;;;;;2.70;88.60;;;;;;5050916;28;19968;-61
2023/11/28 06:27:06;;;;;;;;;;;2.70;88.40;;;;;;5041665;28;19929;-59
2023/11/28 06:29:40;;;;;;;;;;;2.70;88.40;;;;;;5024798;28;19929;-60
2023/11/28 06:32:13;;;;;;;;;;;2.70;88.40;;;;;;5049726;28;19924;-60
2023/11/28 06:34:49;;;;;;;;;;;2.70;88.40;;;;;;5049375;28;19933;-59
2023/11/28 06:37:23;;;;;;;;;;;2.70;88.40;;;;;;5022851;28;20416;-59
2023/11/28 06:39:56;;;;;;;;;;;2.70;88.40;;;;;;5048212;28;19929;-59
2023/11/28 06:42:30;;;;;;;;;;;2.70;88.30;;;;;;5049638;28;20441;-59
2023/11/28 06:45:06;;;;;;;;;;;2.70;88.30;;;;;;5050224;28;19925;-60
2023/11/28 06:47:39;;;;;;;;;;;2.70;88.40;;;;;;5049792;28;19940;-58
2023/11/28 06:50:14;;;;;;;;;;;2.60;88.30;;;;;;5047725;28;19956;-59
2023/11/28 06:52:48;;;;;;;;;;;2.50;88.40;;;;;;5048564;28;19929;-59
2023/11/28 06:55:21;;;;;;;;;;;2.60;88.30;;;;;;5048303;28;19935;-58
2023/11/28 06:57:54;;;;;;;;;;;2.60;88.30;;;;;;5046120;28;19936;-59
2023/11/28 07:00:27;;;;;;;;;;;2.60;88.20;;;;;;5041700;28;19932;-73
2023/11/28 07:03:01;;;;;;;;;;;2.60;88.20;;;;;;5047978;28;20347;-71
2023/11/28 07:05:37;;;;;;;;;;;2.50;88.00;;;;;;5048846;28;19932;-73
2023/11/28 07:08:11;;;;;;;;;;;2.50;88.10;;;;;;5041014;28;20024;-74
2023/11/28 07:10:44;;;;;;;;;;;2.50;88.20;;;;;;5048181;28;19950;-72
2023/11/28 07:13:17;;;;;;;;;;;2.50;88.20;;;;;;5047018;28;19924;-70
2023/11/28 07:15:50;;;;;;;;;;;2.50;88.20;;;;;;5045611;28;19925;-72
2023/11/28 07:18:24;;;;;;;;;;;2.50;88.20;;;;;;5046899;28;19932;-73
2023/11/28 07:20:58;;;;;;;;;;;2.60;88.20;;;;;;5047073;28;19975;-71
2023/11/28 07:23:33;;;;;;;;;;;2.60;88.10;;;;;;5047187;28;19946;-72
2023/11/28 07:26:06;;;;;;;;;;;2.60;88.20;;;;;;5044478;28;19960;-71
2023/11/28 07:28:40;;;;;;;;;;;2.60;88.30;;;;;;5047182;28;19968;-72
2023/11/28 07:31:13;;;;;;;;;;;2.60;88.20;;;;;;5049913;28;20283;-72
2023/11/28 07:33:47;;;;;;;;;;;2.70;88.10;;;;;;5053551;28;19928;-71
2023/11/28 07:36:21;;;;;;;;;;;2.60;88.20;;;;;;5028617;28;20030;-71
2023/11/28 07:38:55;;;;;;;;;;;2.60;88.30;;;;;;5051097;28;20015;-71
2023/11/28 07:41:28;;;;;;;;;;;2.50;88.30;;;;;;5051092;28;19932;-72
2023/11/28 07:44:01;;;;;;;;;;;2.60;88.30;;;;;;5044518;28;19933;-71
2023/11/28 07:46:34;;;;;;;;;;;2.50;88.30;;;;;;5049922;28;20427;-72
2023/11/28 07:49:07;;;;;;;;;;;2.50;88.40;;;;;;5052117;28;19951;-71
2023/11/28 07:51:44;;;;;;;;;;;2.60;88.20;;;;;;5049327;28;19952;-73
2023/11/28 07:54:17;;;;;;;;;;;2.50;88.10;;;;;;5048732;28;20347;-72
2023/11/28 07:56:50;;;;;;;;;;;2.50;88.00;;;;;;5051936;28;19932;-72
2023/11/28 07:59:23;;;;;;;;;;;2.50;88.10;;;;;;5051001;28;19935;-73
2023/11/28 08:01:57;;;;;;;;;;;2.60;87.90;;;;;;5051587;28;20419;-72
2023/11/28 08:04:33;;;;;;;;;;;2.50;87.90;;;;;;5048912;28;20002;-72
2023/11/28 08:07:07;;;;;;;;;;;2.60;88.10;;;;;;5051629;28;19964;-73
2023/11/28 08:09:41;;;;;;;;;;;2.50;87.90;;;;;;5050749;28;19925;-66
2023/11/28 08:12:14;;;;;;;;;;;2.40;88.00;;;;;;5051758;28;19924;-65
2023/11/28 08:14:47;;;;;;;;;;;2.40;88.00;;;;;;5051926;28;19935;-65
2023/11/28 08:17:20;;;;;;;;;;;2.50;87.90;;;;;;5048578;28;20060;-66
2023/11/28 08:19:47;;;;;;;;;;;2.50;87.80;;;;;;5048878;28;19932;-65
2023/11/28 08:22:22;;;;;;;;;;;2.50;87.80;;;;;;5050386;28;19932;-66
2023/11/28 08:24:55;;;;;;;;;;;2.50;87.70;;;;;;5049028;28;19925;-65
2023/11/28 08:27:29;;;;;;;;;;;2.50;87.60;;;;;;5049858;28;19925;-65
2023/11/28 08:30:03;;;;;;;;;;;2.50;87.60;;;;;;5051762;28;19929;-65
2023/11/28 08:32:43;;;;;;;;;;;2.50;87.50;;;;;;5047941;28;20269;-66
2023/11/28 08:35:17;;;;;;;;;;;2.50;87.30;;;;;;5050220;28;19956;-65
2023/11/28 08:37:52;;;;;;;;;;;2.40;87.30;;;;;;5049328;28;20567;-64
2023/11/28 08:40:25;;;;;;;;;;;2.40;87.40;;;;;;5051590;28;19935;-64
2023/11/28 08:43:05;;;;;;;;;;;2.50;87.40;;;;;;5031569;28;19929;-65
2023/11/28 08:45:38;;;;;;;;;;;2.50;87.10;;;;;;5049223;28;21170;-65
2023/11/28 08:48:11;;;;;;;;;;;2.50;87.00;;;;;;5050865;28;19936;-67
2023/11/28 08:50:44;;;;;;;;;;;2.40;86.80;;;;;;5050415;28;19979;-63
2023/11/28 08:53:19;;;;;;;;;;;2.40;86.70;;;;;;5048226;28;19960;-65
2023/11/28 08:55:53;;;;;;;;;;;2.50;86.80;;;;;;5051771;28;19931;-65
2023/11/28 08:58:26;;;;;;;;;;;2.40;86.80;;;;;;5047802;28;19936;-65
2023/11/28 09:00:59;;;;;;;;;;;2.40;86.90;;;;;;5043170;28;19933;-66
2023/11/28 09:03:32;;;;;;;;;;;2.50;87.00;;;;;;5049035;28;19963;-65
2023/11/28 09:06:05;;;;;;;;;;;2.50;86.90;;;;;;5049375;28;19925;-65
2023/11/28 09:08:40;;;;;;;;;;;2.50;86.90;;;;;;5043542;28;19964;-65
2023/11/28 09:11:14;;;;;;;;;;;2.40;86.80;;;;;;5047931;28;19924;-64
2023/11/28 09:13:47;;;;;;;;;;;2.40;86.90;;;;;;5051797;28;19936;-66
2023/11/28 09:16:21;;;;;;;;;;;2.50;86.90;;;;;;5049384;28;20004;-65
2023/11/28 09:18:54;;;;;;;;;;;2.50;86.80;;;;;;5050578;28;20264;-65
2023/11/28 09:21:27;;;;;;;;;;;2.50;86.80;;;;;;5048978;28;19926;-60
2023/11/28 09:24:02;;;;;;;;;;;2.60;86.80;;;;;;5051017;28;19971;-60
2023/11/28 09:26:35;;;;;;;;;;;2.50;86.80;;;;;;5043674;28;19933;-59
2023/11/28 09:29:09;;;;;;;;;;;2.50;86.80;;;;;;5041911;28;19979;-59
2023/11/28 09:31:42;;;;;;;;;;;2.50;86.80;;;;;;5050492;28;19932;-61
2023/11/28 09:34:16;;;;;;;;;;;2.50;86.90;;;;;;5045727;28;19928;-60
2023/11/28 09:36:50;;;;;;;;;;;2.50;86.80;;;;;;5024106;28;20012;-60
2023/11/28 09:39:26;;;;;;;;;;;2.50;86.60;;;;;;5045464;28;19933;-59
2023/11/28 09:42:00;;;;;;;;;;;2.50;86.50;;;;;;5049123;28;19931;-60
2023/11/28 09:44:35;;;;;;;;;;;2.50;86.40;;;;;;5046723;28;20330;-60
2023/11/28 09:47:11;;;;;;;;;;;2.40;86.50;;;;;;5049409;28;19925;-60
2023/11/28 09:49:49;;;;;;;;;;;2.50;86.30;;;;;;5048801;28;19986;-60
2023/11/28 09:52:23;;;;;;;;;;;2.50;86.40;;;;;;5048162;28;19956;-60
2023/11/28 09:54:58;;;;;;;;;;;2.50;86.20;;;;;;5047930;28;19948;-59
2023/11/28 09:57:37;;;;;;;;;;;2.50;86.10;;;;;;5049524;28;19933;-60
2023/11/28 10:00:14;;;;;;;;;;;2.50;86.10;;;;;;5047375;28;20086;-60
2023/11/28 10:02:50;;;;;;;;;;;2.50;85.80;;;;;;5047625;28;19929;-59
2023/11/28 10:05:23;;;;;;;;;;;2.40;85.80;;;;;;5048018;28;20004;-59
2023/11/28 10:07:57;;;;;;;;;;;2.40;85.70;;;;;;5047493;28;20383;-59
2023/11/28 10:10:36;;;;;;;;;;;2.40;85.80;;;;;;5029624;28;20020;-59
2023/11/28 10:13:09;;;;;;;;;;;2.40;85.90;;;;;;5047987;28;20360;-59
2023/11/28 10:15:43;;;;;;;;;;;2.50;85.80;;;;;;5049388;28;19929;-59
2023/11/28 10:18:09;;;;;;;;;;;2.50;85.90;;;;;;5047838;28;19986;-59
2023/11/28 10:20:43;;;;;;;;;;;2.50;85.40;;;;;;5050446;28;20016;-59
2023/11/28 10:23:16;;;;;;;;;;;2.40;85.20;;;;;;5049424;28;19928;-59
2023/11/28 10:25:54;;;;;;;;;;;2.40;85.10;;;;;;5048669;28;19929;-62
2023/11/28 10:28:30;;;;;;;;;;;2.40;85.10;;;;;;5048062;28;20024;-62
2023/11/28 10:31:06;;;;;;;;;;;2.40;85.20;;;;;;5046955;28;20307;-62
2023/11/28 10:33:39;;;;;;;;;;;2.40;84.90;;;;;;5047564;28;19925;-63
2023/11/28 10:36:15;;;;;;;;;;;2.40;84.90;;;;;;5048733;28;19935;-63
2023/11/28 10:38:48;;;;;;;;;;;2.40;84.80;;;;;;5043190;28;20350;-63
2023/11/28 10:41:34;;;;;;;;;;;2.40;84.90;;;;;;5047536;28;19925;-64
2023/11/28 10:44:08;;;;;;;;;;;2.40;84.90;;;;;;5049142;28;20016;-62
2023/11/28 10:46:41;;;;;;;;;;;2.40;84.90;;;;;;5047845;28;19929;-64
2023/11/28 10:49:14;;;;;;;;;;;2.40;84.70;;;;;;5046551;28;20024;-63
2023/11/28 10:51:49;;;;;;;;;;;2.40;84.70;;;;;;5026742;28;19925;-63
2023/11/28 10:54:25;;;;;;;;;;;2.40;84.90;;;;;;5048421;28;19976;-62
2023/11/28 10:57:01;;;;;;;;;;;2.40;84.90;;;;;;5047564;28;19924;-64
2023/11/28 10:59:36;;;;;;;;;;;2.40;84.70;;;;;;5048896;28;19933;-63
2023/11/28 11:02:10;;;;;;;;;;;2.50;84.80;;;;;;5049692;28;19932;-63
2023/11/28 11:04:46;;;;;;;;;;;2.40;84.60;;;;;;5048202;28;19925;-64
2023/11/28 11:07:19;;;;;;;;;;;2.40;84.40;;;;;;5046673;28;19929;-63
2023/11/28 11:09:52;;;;;;;;;;;2.50;84.80;;;;;;5042761;28;19951;-63
2023/11/28 11:12:27;;;;;;;;;;;2.50;84.50;;;;;;5047923;28;19925;-63
2023/11/28 11:15:04;;;;;;;;;;;2.50;84.10;;;;;;5046507;28;20669;-63
2023/11/28 11:17:40;;;;;;;;;;;2.40;84.10;;;;;;5047911;28;19956;-63
2023/11/28 11:20:15;;;;;;;;;;;2.40;84.00;;;;;;5047617;28;19925;-63
2023/11/28 11:22:51;;;;;;;;;;;2.30;84.10;;;;;;5045239;28;19928;-63
2023/11/28 11:25:28;;;;;;;;;;;2.30;84.10;;;;;;5049690;28;19936;-63
2023/11/28 11:28:03;;;;;;;;;;;2.40;84.10;;;;;;5047820;28;19932;-62
2023/11/28 11:30:38;;;;;;;;;;;2.40;83.80;;;;;;5046155;28;19924;-61
2023/11/28 11:33:07;;;;;;;;;;;2.30;83.90;;;;;;5049200;28;19935;-63
2023/11/28 11:36:07;;;;;;;;;;;2.40;83.80;;;;;;5046647;28;20030;-61
2023/11/28 11:38:40;;;;;;;;;;;2.40;83.90;;;;;;5008713;28;19928;-62
2023/11/28 11:41:15;;;;;;;;;;;2.40;83.70;;;;;;5047015;28;20387;-63
2023/11/28 11:43:53;;;;;;;;;;;2.30;83.50;;;;;;5047862;28;19979;-63
2023/11/28 11:46:28;;;;;;;;;;;2.40;83.90;;;;;;5047632;28;19936;-62
2023/11/28 11:49:01;;;;;;;;;;;2.40;83.70;;;;;;5047677;28;19944;-62
2023/11/28 11:51:35;;;;;;;;;;;2.40;83.80;;;;;;5046850;28;19939;-62
2023/11/28 11:54:09;;;;;;;;;;;2.40;83.80;;;;;;5046758;28;20004;-61
2023/11/28 11:56:42;;;;;;;;;;;2.40;83.50;;;;;;5046731;28;19935;-63
2023/11/28 11:59:16;;;;;;;;;;;2.30;83.20;;;;;;5046398;28;19933;-63
2023/11/28 12:01:52;;;;;;;;;;;2.30;82.90;;;;;;5045752;28;20024;-62
2023/11/28 12:04:25;;;;;;;;;;;2.30;83.60;;;;;;5046491;28;19925;-63
2023/11/28 12:07:02;;;;;;;;;;;2.30;83.40;;;;;;5045682;28;19947;-62
2023/11/28 12:09:35;;;;;;;;;;;2.30;82.80;;;;;;5045960;28;19975;-61
2023/11/28 12:12:12;;;;;;;;;;;2.20;83.10;;;;;;5046476;28;20027;-62
2023/11/28 12:14:48;;;;;;;;;;;2.20;83.00;;;;;;5045124;28;19929;-62
2023/11/28 12:17:22;;;;;;;;;;;2.30;83.20;;;;;;5046342;28;19932;-63
2023/11/28 12:19:55;;;;;;;;;;;2.20;83.00;;;;;;5049781;28;20303;-64
2023/11/28 12:22:29;;;;;;;;;;;2.20;82.50;;;;;;5051621;28;19935;-60
2023/11/28 12:25:02;;;;;;;;;;;2.20;83.00;;;;;;5051783;28;19936;-63
2023/11/28 12:27:35;;;;;;;;;;;2.20;82.90;;;;;;5052077;28;19951;-62
2023/11/28 12:30:10;;;;;;;;;;;2.20;82.60;;;;;;5052526;28;19968;-63
2023/11/28 12:32:43;;;;;;;;;;;2.30;82.70;;;;;;5048789;28;19933;-63
2023/11/28 12:35:23;;;;;;;;;;;2.30;82.60;;;;;;5051778;28;19925;-62
2023/11/28 12:37:57;;;;;;;;;;;2.20;82.30;;;;;;5045199;28;19931;-64
2023/11/28 12:40:33;;;;;;;;;;;2.20;82.70;;;;;;5048598;28;19933;-62
2023/11/28 12:43:06;;;;;;;;;;;2.20;82.70;;;;;;5049893;28;20419;-63
2023/11/28 12:45:41;;;;;;;;;;;2.30;82.60;;;;;;5048965;28;19924;-63
2023/11/28 12:48:16;;;;;;;;;;;2.40;82.60;;;;;;5040373;28;19924;-63
2023/11/28 12:50:50;;;;;;;;;;;2.30;82.50;;;;;;5050455;28;19933;-75
2023/11/28 12:53:25;;;;;;;;;;;2.30;82.40;;;;;;5052182;28;19925;-75
2023/11/28 12:55:58;;;;;;;;;;;2.30;82.40;;;;;;5049175;28;19994;-73
2023/11/28 12:58:34;;;;;;;;;;;2.20;82.60;;;;;;5050920;28;19940;-77
2023/11/28 13:01:09;;;;;;;;;;;2.20;82.20;;;;;;5053184;28;19964;-75
2023/11/28 13:03:42;;;;;;;;;;;2.20;82.50;;;;;;5035299;28;20027;-75
2023/11/28 13:06:15;;;;;;;;;;;2.10;82.40;;;;;;5049409;28;19932;-76
2023/11/28 13:08:48;;;;;;;;;;;2.10;82.40;;;;;;5053068;28;19924;-75
2023/11/28 13:11:29;;;;;;;;;;;2.10;82.30;;;;;;5052028;28;19935;-74
2023/11/28 13:14:03;;;;;;;;;;;2.10;82.10;;;;;;5050451;28;20018;-76
2023/11/28 13:16:40;;;;;;;;;;;2.10;81.90;;;;;;5050036;28;19956;-75
2023/11/28 13:19:13;;;;;;;;;;;2.10;81.60;;;;;;5051573;28;20435;-76
2023/11/28 13:21:49;;;;;;;;;;;2.10;82.00;;;;;;5049977;28;20409;-75
2023/11/28 13:24:22;;;;;;;;;;;2.10;81.80;;;;;;5048775;28;19932;-74
2023/11/28 13:26:55;;;;;;;;;;;2.10;82.10;;;;;;5039525;28;19924;-74
2023/11/28 13:29:29;;;;;;;;;;;2.10;82.30;;;;;;5040235;28;19933;-73
2023/11/28 13:32:07;;;;;;;;;;;2.10;81.80;;;;;;5044143;28;19931;-74
2023/11/28 13:34:44;;;;;;;;;;;2.10;81.30;;;;;;5039237;28;19943;-74
2023/11/28 13:37:18;;;;;;;;;;;2.00;81.50;;;;;;5047607;28;20391;-75
2023/11/28 13:39:52;;;;;;;;;;;2.00;81.20;;;;;;5052215;28;19936;-75
2023/11/28 13:42:26;;;;;;;;;;;2.10;81.40;;;;;;5051284;28;19925;-75
2023/11/28 13:44:59;;;;;;;;;;;2.10;81.50;;;;;;5051758;28;19925;-76
2023/11/28 13:47:33;;;;;;;;;;;2.00;81.50;;;;;;5050574;28;19932;-74
2023/11/28 13:50:09;;;;;;;;;;;2.10;81.60;;;;;;5051804;28;19928;-73
2023/11/28 13:52:42;;;;;;;;;;;2.10;81.80;;;;;;5049972;28;19929;-75
2023/11/28 13:55:16;;;;;;;;;;;2.00;81.50;;;;;;5051343;28;19928;-74
2023/11/28 13:57:49;;;;;;;;;;;2.10;81.50;;;;;;5052020;28;19995;-75
2023/11/28 14:00:22;;;;;;;;;;;2.10;81.50;;;;;;5051210;28;19948;-65
2023/11/28 14:02:56;;;;;;;;;;;2.10;81.30;;;;;;5050819;28;19924;-64
2023/11/28 14:05:30;;;;;;;;;;;2.10;81.10;;;;;;5051033;28;20394;-66
2023/11/28 14:08:06;;;;;;;;;;;2.10;81.60;;;;;;5051473;28;19939;-66
2023/11/28 14:10:40;;;;;;;;;;;2.10;81.70;;;;;;5049778;28;19949;-66
2023/11/28 14:13:13;;;;;;;;;;;2.10;81.60;;;;;;5050494;28;19928;-64
2023/11/28 14:15:40;;;;;;;;;;;2.00;81.70;;;;;;5051158;28;19964;-64
2023/11/28 14:18:15;;;;;;;;;;;2.00;81.70;;;;;;5047260;28;19994;-66
2023/11/28 14:20:48;;;;;;;;;;;2.00;81.70;;;;;;5048337;28;20414;-65
2023/11/28 14:23:21;;;;;;;;;;;2.00;81.70;;;;;;5049986;28;20354;-66
2023/11/28 14:25:57;;;;;;;;;;;2.00;81.50;;;;;;5050063;28;19933;-66
2023/11/28 14:28:30;;;;;;;;;;;2.00;81.70;;;;;;5048150;28;19928;-64
2023/11/28 14:31:04;;;;;;;;;;;1.90;80.70;;;;;;5050589;28;19924;-66
2023/11/28 14:33:45;;;;;;;;;;;1.90;80.80;;;;;;5048472;28;19965;-65
2023/11/28 14:36:18;;;;;;;;;;;1.90;80.70;;;;;;5049031;28;19932;-65
2023/11/28 14:38:51;;;;;;;;;;;1.90;80.80;;;;;;5047868;28;20297;-65
2023/11/28 14:41:24;;;;;;;;;;;1.90;80.60;;;;;;5024046;28;19929;-66
2023/11/28 14:43:51;;;;;;;;;;;1.90;81.00;;;;;;5049351;28;20019;-65
2023/11/28 14:46:31;;;;;;;;;;;2.00;81.00;;;;;;5050734;28;19932;-65
2023/11/28 14:49:08;;;;;;;;;;;2.00;80.80;;;;;;5049363;28;19929;-65
2023/11/28 14:51:41;;;;;;;;;;;2.00;81.00;;;;;;5049702;28;19928;-66
2023/11/28 14:54:17;;;;;;;;;;;2.00;81.10;;;;;;5049148;28;19925;-65
2023/11/28 14:56:52;;;;;;;;;;;1.90;80.80;;;;;;5049039;28;19932;-67
2023/11/28 14:59:25;;;;;;;;;;;1.90;81.10;;;;;;5050291;28;19971;-65
2023/11/28 15:01:58;;;;;;;;;;;1.90;81.30;;;;;;5045077;28;19970;-66
2023/11/28 15:04:32;;;;;;;;;;;1.90;81.40;;;;;;5049209;28;19978;-65
2023/11/28 15:07:06;;;;;;;;;;;1.90;81.50;;;;;;5049494;28;20437;-65
2023/11/28 15:09:39;;;;;;;;;;;1.90;81.50;;;;;;5049085;28;19929;-76
2023/11/28 15:12:12;;;;;;;;;;;1.90;81.50;;;;;;5049788;28;20375;-75